createdAt,value
2023-02-25T00:00:09.989Z,94.60
2023-02-25T00:02:37.822Z,94.40
2023-02-25T00:05:07.004Z,95.10
2023-02-25T00:07:33.435Z,95.00
2023-02-25T00:10:00.149Z,95.40
2023-02-25T00:12:28.851Z,95.50
2023-02-25T00:14:56.241Z,96.00
2023-02-25T00:17:22.650Z,95.90
2023-02-25T00:19:49.092Z,96.00
2023-02-25T00:22:16.298Z,96.70
2023-02-25T00:24:42.559Z,96.80
2023-02-25T00:27:10.228Z,97.00
2023-02-25T00:29:36.450Z,97.10
2023-02-25T00:32:03.278Z,97.10
2023-02-25T00:34:29.938Z,97.50
2023-02-25T00:36:56.178Z,97.00
2023-02-25T00:39:24.390Z,97.00
2023-02-25T00:44:17.769Z,95.90
2023-02-25T00:46:45.871Z,96.50
2023-02-25T00:49:16.713Z,97.10
2023-02-25T00:51:48.471Z,97.00
2023-02-25T00:54:14.603Z,97.00
2023-02-25T00:56:40.777Z,97.10
2023-02-25T00:59:06.944Z,96.90
2023-02-25T01:01:33.129Z,96.90
2023-02-25T01:03:59.365Z,96.80
2023-02-25T01:06:27.260Z,97.10
2023-02-25T01:08:53.560Z,97.10
2023-02-25T01:11:26.491Z,96.90
2023-02-25T01:13:52.954Z,97.10
2023-02-25T01:16:22.033Z,96.80
2023-02-25T01:18:52.163Z,96.80
2023-02-25T01:21:29.113Z,96.50
2023-02-25T01:24:00.703Z,95.90
2023-02-25T01:26:29.034Z,96.00
2023-02-25T01:28:55.259Z,96.00
2023-02-25T01:31:29.672Z,95.90
2023-02-25T01:34:00.709Z,96.30
2023-02-25T01:36:27.197Z,96.00
2023-02-25T01:38:53.747Z,96.20
2023-02-25T01:41:20.316Z,95.90
2023-02-25T01:50:37.012Z,96.10
2023-02-25T01:53:03.611Z,99.90
2023-02-25T01:55:30.447Z,96.00
2023-02-25T01:57:59.029Z,95.90
2023-02-25T02:00:27.807Z,95.90
2023-02-25T02:02:55.616Z,95.80
2023-02-25T02:05:24.251Z,95.50
2023-02-25T02:07:51.524Z,95.90
2023-02-25T02:10:19.457Z,95.60
2023-02-25T02:12:46.027Z,95.30
2023-02-25T02:15:14.929Z,95.30
2023-02-25T02:18:01.115Z,95.10
2023-02-25T02:20:37.776Z,95.20
2023-02-25T02:23:43.120Z,95.10
2023-02-25T02:29:55.579Z,95.00
2023-02-25T02:34:03.604Z,94.90
2023-02-25T02:38:14.119Z,94.80
2023-02-25T02:41:00.417Z,94.80
2023-02-25T02:43:50.988Z,94.70
2023-02-25T02:46:23.519Z,94.40
2023-02-25T02:49:13.254Z,94.60
2023-02-25T02:51:44.135Z,94.40
2023-02-25T02:54:10.537Z,94.00
2023-02-25T02:56:38.516Z,94.30
2023-02-25T02:59:14.198Z,94.40
2023-02-25T03:01:46.844Z,94.10
2023-02-25T03:04:15.268Z,94.00
2023-02-25T03:06:46.365Z,94.00
2023-02-25T03:09:30.705Z,94.00
2023-02-25T03:11:56.808Z,94.00
2023-02-25T03:14:23.787Z,94.20
2023-02-25T03:17:05.910Z,93.90
2023-02-25T03:19:45.323Z,93.60
2023-02-25T03:22:17.161Z,93.70
2023-02-25T03:24:59.492Z,93.60
2023-02-25T03:27:39.743Z,93.30
2023-02-25T03:31:01.417Z,93.50
2023-02-25T03:33:53.982Z,93.40
2023-02-25T03:36:41.518Z,93.40
2023-02-25T03:39:10.613Z,93.50
2023-02-25T03:41:38.603Z,93.70
2023-02-25T03:44:12.055Z,93.90
2023-02-25T03:46:39.053Z,94.10
2023-02-25T03:49:05.209Z,94.00
2023-02-25T03:51:36.339Z,94.00
2023-02-25T03:54:03.457Z,94.10
2023-02-25T03:56:29.686Z,94.00
2023-02-25T03:58:55.798Z,94.00
2023-02-25T04:01:26.468Z,94.00
2023-02-25T04:03:52.642Z,93.90
2023-02-25T04:06:25.042Z,94.10
2023-02-25T04:08:51.559Z,94.00
2023-02-25T04:11:17.704Z,94.00
2023-02-25T04:13:43.809Z,94.20
2023-02-25T04:16:11.279Z,94.40
2023-02-25T04:18:39.252Z,94.50
2023-02-25T04:21:09.208Z,94.40
2023-02-25T04:23:35.799Z,94.10
2023-02-25T04:26:02.960Z,94.40
2023-02-25T04:28:30.488Z,94.20
2023-02-25T04:30:58.183Z,93.70
2023-02-25T04:33:24.455Z,93.90
2023-02-25T04:35:51.162Z,93.70
2023-02-25T04:38:18.377Z,93.40
2023-02-25T04:40:44.508Z,93.00
2023-02-25T04:43:10.646Z,93.10
2023-02-25T04:45:36.801Z,92.70
2023-02-25T04:48:03.898Z,92.60
2023-02-25T04:50:30.017Z,92.50
2023-02-25T04:52:58.533Z,92.30
2023-02-25T04:55:24.857Z,91.70
2023-02-25T04:57:51.011Z,91.80
2023-02-25T05:00:19.268Z,91.60
2023-02-25T05:02:47.241Z,91.40
2023-02-25T05:05:14.344Z,91.40
2023-02-25T05:07:40.757Z,91.50
2023-02-25T05:10:08.465Z,91.10
2023-02-25T05:12:35.231Z,91.20
2023-02-25T05:15:04.978Z,91.10
2023-02-25T05:17:31.622Z,90.90
2023-02-25T05:19:57.919Z,90.80
2023-02-25T05:22:25.997Z,91.40
2023-02-25T05:24:52.754Z,90.80
2023-02-25T05:27:19.457Z,90.90
2023-02-25T05:29:45.594Z,90.90
2023-02-25T05:32:12.238Z,91.20
2023-02-25T05:34:38.528Z,91.40
2023-02-25T05:37:04.664Z,91.70
2023-02-25T05:39:30.771Z,92.10
2023-02-25T05:41:57.971Z,92.30
2023-02-25T05:44:24.300Z,92.50
2023-02-25T05:46:50.476Z,93.10
2023-02-25T05:49:16.619Z,93.30
2023-02-25T05:51:42.833Z,93.40
2023-02-25T05:54:09.319Z,93.80
2023-02-25T05:56:36.364Z,94.10
2023-02-25T05:59:02.596Z,94.00
2023-02-25T06:01:28.827Z,94.40
2023-02-25T06:03:57.671Z,94.40
2023-02-25T06:06:25.009Z,94.50
2023-02-25T06:08:51.734Z,94.40
2023-02-25T06:11:22.495Z,94.50
2023-02-25T06:13:50.346Z,94.50
2023-02-25T06:16:17.276Z,94.60
2023-02-25T06:18:45.425Z,94.40
2023-02-25T06:21:12.881Z,94.80
2023-02-25T06:23:39.352Z,94.90
2023-02-25T06:26:07.970Z,95.00
2023-02-25T06:28:35.765Z,94.90
2023-02-25T06:31:02.043Z,94.80
2023-02-25T06:33:30.827Z,95.40
2023-02-25T06:35:57.254Z,95.10
2023-02-25T06:38:43.390Z,95.20
2023-02-25T06:41:28.281Z,95.20
2023-02-25T06:44:15.805Z,95.50
2023-02-25T06:47:00.826Z,95.10
2023-02-25T06:49:45.789Z,95.00
2023-02-25T06:52:32.295Z,95.60
2023-02-25T06:54:58.397Z,95.60
2023-02-25T06:57:25.026Z,95.60
2023-02-25T06:59:53.488Z,95.60
2023-02-25T07:02:19.942Z,95.20
2023-02-25T07:04:46.625Z,95.10
2023-02-25T07:07:13.174Z,94.90
2023-02-25T07:09:39.292Z,95.00
2023-02-25T07:12:05.647Z,95.10
2023-02-25T07:14:32.713Z,95.00
2023-02-25T07:16:58.843Z,94.80
2023-02-25T07:19:25.983Z,94.50
2023-02-25T07:21:52.137Z,94.30
2023-02-25T07:24:37.166Z,94.30
2023-02-25T07:27:22.449Z,94.10
2023-02-25T07:30:12.660Z,94.20
2023-02-25T07:32:58.492Z,94.00
2023-02-25T07:35:43.499Z,94.00
2023-02-25T07:38:29.906Z,94.70
2023-02-25T07:40:56.995Z,94.20
2023-02-25T07:43:23.462Z,94.40
2023-02-25T07:45:51.550Z,94.70
2023-02-25T07:48:17.935Z,95.60
2023-02-25T07:50:45.194Z,95.90
2023-02-25T07:53:12.588Z,96.20
2023-02-25T07:55:43.242Z,96.20
2023-02-25T07:58:10.622Z,96.40
2023-02-25T08:00:38.793Z,96.30
2023-02-25T08:03:05.307Z,96.00
2023-02-25T08:05:38.453Z,98.90
2023-02-25T08:08:05.631Z,95.40
2023-02-25T08:10:33.282Z,94.90
2023-02-25T08:13:01.019Z,94.80
2023-02-25T08:15:28.255Z,94.90
2023-02-25T08:17:55.236Z,94.80
2023-02-25T08:20:22.129Z,94.10
2023-02-25T08:22:48.395Z,94.60
2023-02-25T08:25:14.730Z,94.30
2023-02-25T08:27:43.593Z,93.80
2023-02-25T08:30:13.871Z,93.90
2023-02-25T08:32:41.760Z,93.80
2023-02-25T08:35:09.099Z,93.90
2023-02-25T08:37:35.786Z,94.90
2023-02-25T08:40:01.994Z,94.90
2023-02-25T08:42:28.147Z,95.50
2023-02-25T08:44:55.729Z,94.40
2023-02-25T08:47:21.911Z,94.10
2023-02-25T08:49:48.151Z,94.50
2023-02-25T08:52:14.321Z,94.30
2023-02-25T08:54:41.392Z,94.80
2023-02-25T08:57:07.990Z,94.80
2023-02-25T08:59:36.585Z,95.50
2023-02-25T09:02:09.280Z,95.20
2023-02-25T09:04:35.666Z,94.60
2023-02-25T09:07:03.197Z,94.60
2023-02-25T09:09:32.120Z,95.10
2023-02-25T09:11:59.333Z,95.00
2023-02-25T09:14:25.713Z,94.80
2023-02-25T09:16:51.996Z,95.20
2023-02-25T09:19:19.401Z,95.20
2023-02-25T09:21:50.172Z,95.00
2023-02-25T09:24:17.341Z,94.90
2023-02-25T09:26:43.862Z,95.10
2023-02-25T09:29:11.166Z,95.10
2023-02-25T09:31:39.077Z,95.20
2023-02-25T09:34:08.356Z,95.10
2023-02-25T09:36:35.794Z,95.10
2023-02-25T09:39:07.614Z,94.30
2023-02-25T09:41:55.962Z,94.00
2023-02-25T09:44:28.609Z,94.60
2023-02-25T09:50:21.519Z,94.40
2023-02-25T09:53:37.338Z,94.00
2023-02-25T09:56:06.226Z,94.50
2023-02-25T09:58:41.483Z,94.90
2023-02-25T10:01:33.695Z,95.00
2023-02-25T10:05:07.703Z,95.20
2023-02-25T10:07:36.369Z,94.80
2023-02-25T10:10:13.330Z,94.30
2023-02-25T10:12:56.455Z,94.50
2023-02-25T10:15:52.951Z,95.00
2023-02-25T10:18:51.885Z,93.70
2023-02-25T10:23:08.380Z,93.80
2023-02-25T10:25:48.296Z,93.80
2023-02-25T10:28:15.958Z,94.40
2023-02-25T10:31:01.768Z,93.80
2023-02-25T10:33:31.123Z,92.90
2023-02-25T10:36:44.072Z,92.50
2023-02-25T10:39:10.361Z,92.90
2023-02-25T10:41:36.954Z,92.60
2023-02-25T10:44:03.498Z,92.00
2023-02-25T10:46:33.642Z,91.40
2023-02-25T10:49:16.840Z,90.20
2023-02-25T10:55:23.957Z,88.70
2023-02-25T10:57:50.419Z,90.00
2023-02-25T11:00:37.891Z,90.40
2023-02-25T11:03:05.072Z,90.10
2023-02-25T11:05:37.389Z,90.80
2023-02-25T11:08:29.704Z,90.90
2023-02-25T11:11:26.513Z,91.00
2023-02-25T11:14:15.480Z,91.80
2023-02-25T11:16:43.207Z,92.90
2023-02-25T11:19:25.283Z,94.00
2023-02-25T11:21:51.532Z,94.80
2023-02-25T11:24:27.460Z,95.30
2023-02-25T11:26:54.130Z,95.20
2023-02-25T11:29:48.114Z,96.50
2023-02-25T11:32:18.417Z,97.80
2023-02-25T11:34:52.971Z,96.00
2023-02-25T11:37:45.452Z,95.40
2023-02-25T11:40:28.882Z,95.50
2023-02-25T11:43:36.536Z,94.60
2023-02-25T11:46:09.464Z,94.90
2023-02-25T11:49:30.209Z,93.50
2023-02-25T11:56:43.136Z,92.40
2023-02-25T11:59:36.355Z,92.30
2023-02-25T12:11:49.440Z,93.60
2023-02-25T12:16:55.031Z,94.20
2023-02-25T12:21:02.366Z,94.30
2023-02-25T12:24:28.799Z,93.90
2023-02-25T12:30:39.578Z,94.00
2023-02-25T12:33:23.667Z,94.10
2023-02-25T12:36:10.065Z,94.60
2023-02-25T12:42:26.413Z,93.40
2023-02-25T12:46:04.070Z,93.00
2023-02-25T12:53:45.226Z,92.80
2023-02-25T12:59:10.282Z,94.00
2023-02-25T13:06:52.547Z,93.50
2023-02-25T13:10:52.655Z,93.30
2023-02-25T13:16:00.679Z,94.00
2023-02-25T13:18:54.015Z,94.20
2023-02-25T13:22:33.559Z,94.20
2023-02-25T13:25:12.813Z,94.60
2023-02-25T13:34:37.469Z,95.30
2023-02-25T13:37:40.426Z,95.30
2023-02-25T13:40:43.803Z,96.50
2023-02-25T13:45:54.584Z,96.50
2023-02-25T13:50:41.481Z,96.80
2023-02-25T13:53:45.224Z,96.70
2023-02-25T13:56:37.934Z,96.40
2023-02-25T14:04:52.588Z,96.50
2023-02-25T14:08:46.850Z,96.50
2023-02-25T14:15:02.520Z,95.80
2023-02-25T14:18:23.207Z,95.80
2023-02-25T14:23:12.017Z,96.40
2023-02-25T14:26:13.042Z,96.30
2023-02-25T14:31:44.510Z,96.20
2023-02-25T14:37:51.743Z,96.00
2023-02-25T14:40:25.601Z,96.20
2023-02-25T14:46:30.684Z,96.40
2023-02-25T14:49:43.691Z,95.30
2023-02-25T14:54:44.945Z,96.50
2023-02-25T15:01:14.253Z,95.90
2023-02-25T15:03:55.067Z,96.00
2023-02-25T15:16:42.632Z,96.30
2023-02-25T15:23:00.117Z,95.90
2023-02-25T15:25:38.063Z,95.80
2023-02-25T15:28:52.054Z,96.20
2023-02-25T15:31:33.305Z,95.90
2023-02-25T15:34:28.262Z,96.20
2023-02-25T15:37:32.595Z,95.90
2023-02-25T15:43:36.427Z,96.50
2023-02-25T15:47:26.340Z,97.10
2023-02-25T15:49:54.382Z,97.20
2023-02-25T15:52:53.201Z,96.90
2023-02-25T15:55:34.808Z,97.30
2023-02-25T15:58:01.357Z,97.70
2023-02-25T16:00:55.177Z,99.90
2023-02-25T16:03:40.355Z,96.90
2023-02-25T16:06:50.003Z,97.20
2023-02-25T16:09:17.628Z,97.40
2023-02-25T16:11:45.255Z,97.70
2023-02-25T16:14:34.266Z,98.10
2023-02-25T16:17:17.709Z,98.50
2023-02-25T16:19:45.852Z,98.00
2023-02-25T16:22:23.841Z,98.40
2023-02-25T16:24:55.022Z,98.60
2023-02-25T16:29:38.572Z,98.80
2023-02-25T16:33:28.557Z,98.80
2023-02-25T16:36:11.785Z,99.10
2023-02-25T16:39:05.135Z,99.10
2023-02-25T16:41:38.205Z,99.30
2023-02-25T16:44:05.006Z,98.90
2023-02-25T16:46:33.194Z,98.60
2023-02-25T16:49:01.658Z,98.80
2023-02-25T16:51:36.358Z,99.10
2023-02-25T16:54:14.161Z,99.10
2023-02-25T16:56:41.618Z,99.10
2023-02-25T16:59:30.533Z,99.80
2023-02-25T17:02:04.077Z,99.60
2023-02-25T17:04:36.696Z,99.60
2023-02-25T17:07:17.730Z,99.90
2023-02-25T17:09:48.575Z,99.90
2023-02-25T17:12:29.140Z,99.80
2023-02-25T17:14:56.620Z,99.90
2023-02-25T17:17:34.725Z,99.90
2023-02-25T17:20:08.409Z,99.90
2023-02-25T17:22:39.415Z,99.90
2023-02-25T17:25:09.259Z,99.90
2023-02-25T17:27:35.436Z,99.90
2023-02-25T17:30:01.759Z,99.90
2023-02-25T17:32:30.091Z,99.90
2023-02-25T17:35:00.571Z,99.90
2023-02-25T17:37:29.990Z,99.90
2023-02-25T17:39:56.784Z,99.90
2023-02-25T17:42:35.505Z,99.90
2023-02-25T17:45:08.948Z,99.90
2023-02-25T17:47:38.191Z,99.90
2023-02-25T17:50:28.373Z,99.90
2023-02-25T17:52:55.493Z,99.90
2023-02-25T17:55:36.512Z,99.90
2023-02-25T17:58:03.954Z,99.90
2023-02-25T18:00:32.399Z,99.90
2023-02-25T18:03:18.902Z,99.90
2023-02-25T18:05:58.361Z,99.90
2023-02-25T18:08:44.332Z,99.90
2023-02-25T18:11:49.567Z,99.90
2023-02-25T18:14:41.031Z,99.90
2023-02-25T18:17:25.958Z,99.90
2023-02-25T18:19:57.854Z,99.90
2023-02-25T18:23:55.702Z,99.90
2023-02-25T18:26:27.933Z,99.90
2023-02-25T18:28:57.071Z,99.90
2023-02-25T18:31:24.240Z,99.90
2023-02-25T18:33:51.778Z,99.90
2023-02-25T18:36:25.239Z,99.90
2023-02-25T18:38:57.789Z,99.90
2023-02-25T18:41:24.117Z,99.90
2023-02-25T18:46:21.496Z,99.90
2023-02-25T18:48:48.678Z,99.90
2023-02-25T18:51:14.980Z,99.90
2023-02-25T18:53:41.528Z,99.90
2023-02-25T18:56:09.269Z,99.90
2023-02-25T18:58:36.327Z,99.90
2023-02-25T19:01:05.111Z,99.90
2023-02-25T19:03:38.226Z,99.90
2023-02-25T19:06:07.091Z,99.90
2023-02-25T19:08:36.324Z,99.90
2023-02-25T19:13:39.900Z,99.90
2023-02-25T19:16:07.753Z,99.90
2023-02-25T19:18:34.340Z,99.90
2023-02-25T19:21:01.577Z,99.90
2023-02-25T19:23:29.084Z,99.90
2023-02-25T19:26:05.142Z,99.90
2023-02-25T19:28:31.933Z,99.90
2023-02-25T19:30:59.622Z,99.90
2023-02-25T19:33:26.114Z,99.90
2023-02-25T19:35:52.288Z,99.90
2023-02-25T19:38:18.832Z,99.90
2023-02-25T19:40:45.844Z,99.90
2023-02-25T19:43:12.378Z,99.90
2023-02-25T19:45:40.070Z,99.90
2023-02-25T19:48:07.145Z,99.90
2023-02-25T19:50:35.939Z,99.90
2023-02-25T19:53:03.658Z,99.90
2023-02-25T19:55:30.552Z,99.90
2023-02-25T19:57:57.275Z,99.90
2023-02-25T20:00:25.954Z,99.90
2023-02-25T20:02:55.644Z,99.30
2023-02-25T20:05:22.767Z,99.90
2023-02-25T20:07:49.038Z,99.90
2023-02-25T20:10:16.662Z,99.90
2023-02-25T20:12:44.507Z,99.90
2023-02-25T20:15:14.273Z,99.90
2023-02-25T20:17:41.904Z,99.10
2023-02-25T20:20:10.332Z,99.90
2023-02-25T20:22:40.326Z,99.90
2023-02-25T20:25:10.341Z,98.10
2023-02-25T20:30:08.966Z,99.90
2023-02-25T20:32:41.573Z,99.90
2023-02-25T20:35:15.723Z,99.80
2023-02-25T20:37:47.444Z,99.90
2023-02-25T20:40:13.888Z,99.90
2023-02-25T20:42:41.032Z,99.90
2023-02-25T20:45:19.854Z,99.90
2023-02-25T20:47:46.801Z,99.90
2023-02-25T20:50:19.980Z,99.90
2023-02-25T20:52:47.248Z,97.60
2023-02-25T20:55:17.350Z,99.90
2023-02-25T20:57:43.576Z,99.90
2023-02-25T21:00:14.560Z,98.20
2023-02-25T21:02:42.579Z,99.90
2023-02-25T21:05:12.521Z,99.90
2023-02-25T21:07:41.660Z,99.90
2023-02-25T21:10:12.373Z,99.90
2023-02-25T21:12:39.428Z,99.90
2023-02-25T21:15:07.444Z,99.90
2023-02-25T21:17:37.775Z,99.90
2023-02-25T21:20:09.383Z,99.90
2023-02-25T21:22:37.945Z,99.90
2023-02-25T21:25:06.803Z,99.90
2023-02-25T21:27:33.536Z,99.90
2023-02-25T21:30:01.657Z,99.90
2023-02-25T21:32:29.743Z,99.90
2023-02-25T21:34:56.121Z,99.90
2023-02-25T21:37:24.908Z,99.90
2023-02-25T21:39:53.132Z,99.90
2023-02-25T21:42:19.513Z,99.90
2023-02-25T21:44:47.023Z,96.50
2023-02-25T21:47:13.707Z,99.90
2023-02-25T21:49:42.901Z,99.90
2023-02-25T21:52:12.202Z,99.90
2023-02-25T21:54:39.524Z,99.90
2023-02-25T21:59:43.819Z,99.90
2023-02-25T22:02:11.136Z,99.90
2023-02-25T22:04:41.164Z,99.90
2023-02-25T22:07:07.763Z,99.90
2023-02-25T22:09:38.398Z,99.90
2023-02-25T22:12:05.643Z,99.90
2023-02-25T22:17:09.632Z,99.90
2023-02-25T22:19:37.494Z,96.90
2023-02-25T22:22:04.191Z,99.90
2023-02-25T22:24:31.747Z,99.90
2023-02-25T22:26:59.944Z,99.90
2023-02-25T22:29:26.988Z,99.90
2023-02-25T22:34:23.808Z,99.90
2023-02-25T22:36:50.081Z,99.90
2023-02-25T22:39:19.556Z,98.20
2023-02-25T22:41:45.776Z,99.90
2023-02-25T22:44:13.034Z,98.90
2023-02-25T22:46:41.126Z,97.10
2023-02-25T22:49:07.920Z,99.90
2023-02-25T22:51:36.464Z,99.90
2023-02-25T22:54:05.330Z,99.90
2023-02-25T22:59:04.038Z,97.40
2023-02-25T23:01:31.854Z,99.90
2023-02-25T23:03:58.948Z,97.00
2023-02-25T23:06:37.466Z,99.90
2023-02-25T23:11:36.676Z,99.90
2023-02-25T23:14:03.390Z,99.90
2023-02-25T23:16:36.255Z,99.90
2023-02-25T23:19:03.861Z,99.90
2023-02-25T23:21:32.218Z,99.90
2023-02-25T23:24:01.692Z,97.50
2023-02-25T23:26:29.937Z,99.90
2023-02-25T23:29:01.442Z,99.90
2023-02-25T23:31:39.719Z,99.90
2023-02-25T23:34:08.949Z,99.90
2023-02-25T23:36:39.767Z,99.90
2023-02-25T23:39:06.187Z,99.90
2023-02-25T23:41:34.406Z,96.00
2023-02-25T23:44:03.623Z,99.90
2023-02-25T23:46:31.010Z,99.90
2023-02-25T23:49:02.054Z,99.90
2023-02-25T23:51:28.736Z,99.90
2023-02-25T23:53:57.012Z,99.90
2023-02-25T23:56:25.055Z,99.90
2023-02-25T23:58:53.825Z,96.00
